sensor_id;sensor_type;location;lat;lon;timestamp;pressure;altitude;pressure_sealevel;temperature;humidity
55590;BME280;41452;42.780;23.116;2023-05-20T00:00:13;94687.66;;;10.59;100.00
55590;BME280;41452;42.780;23.116;2023-05-20T00:02:38;94661.66;;;10.39;100.00
55590;BME280;41452;42.780;23.116;2023-05-20T00:05:04;94681.47;;;10.54;100.00
55590;BME280;41452;42.780;23.116;2023-05-20T00:07:29;94655.84;;;10.31;100.00
55590;BME280;41452;42.780;23.116;2023-05-20T00:09:55;94678.63;;;10.55;100.00
55590;BME280;41452;42.780;23.116;2023-05-20T00:12:20;94681.91;;;10.51;100.00
55590;BME280;41452;42.780;23.116;2023-05-20T00:14:45;94680.38;;;10.43;100.00
55590;BME280;41452;42.780;23.116;2023-05-20T00:17:11;94678.91;;;10.47;100.00
55590;BME280;41452;42.780;23.116;2023-05-20T00:19:36;94674.22;;;10.49;100.00
55590;BME280;41452;42.780;23.116;2023-05-20T00:22:01;94667.00;;;10.44;100.00
55590;BME280;41452;42.780;23.116;2023-05-20T00:24:27;94660.69;;;10.34;100.00
55590;BME280;41452;42.780;23.116;2023-05-20T00:26:52;94633.13;;;10.06;100.00
55590;BME280;41452;42.780;23.116;2023-05-20T00:29:20;94619.56;;;9.90;100.00
55590;BME280;41452;42.780;23.116;2023-05-20T00:31:45;94663.72;;;10.12;100.00
55590;BME280;41452;42.780;23.116;2023-05-20T00:34:11;94670.00;;;10.11;100.00
55590;BME280;41452;42.780;23.116;2023-05-20T00:36:36;94633.25;;;9.93;100.00
55590;BME280;41452;42.780;23.116;2023-05-20T00:39:02;94661.78;;;10.07;100.00
55590;BME280;41452;42.780;23.116;2023-05-20T00:41:27;94657.09;;;10.09;100.00
55590;BME280;41452;42.780;23.116;2023-05-20T00:43:53;94640.56;;;9.90;100.00
55590;BME280;41452;42.780;23.116;2023-05-20T00:46:19;94650.56;;;10.00;100.00
55590;BME280;41452;42.780;23.116;2023-05-20T00:48:45;94651.72;;;10.04;100.00
55590;BME280;41452;42.780;23.116;2023-05-20T00:51:12;94652.34;;;10.00;100.00
55590;BME280;41452;42.780;23.116;2023-05-20T00:53:38;94641.59;;;9.89;100.00
55590;BME280;41452;42.780;23.116;2023-05-20T00:56:04;94644.94;;;9.97;100.00
55590;BME280;41452;42.780;23.116;2023-05-20T00:58:30;94654.53;;;10.03;100.00
55590;BME280;41452;42.780;23.116;2023-05-20T01:00:56;94633.09;;;9.87;100.00
55590;BME280;41452;42.780;23.116;2023-05-20T01:03:22;94664.69;;;9.99;100.00
55590;BME280;41452;42.780;23.116;2023-05-20T01:05:47;94656.00;;;9.99;100.00
55590;BME280;41452;42.780;23.116;2023-05-20T01:08:12;94649.09;;;10.04;100.00
55590;BME280;41452;42.780;23.116;2023-05-20T01:10:41;94649.16;;;9.98;100.00
55590;BME280;41452;42.780;23.116;2023-05-20T01:13:14;94650.56;;;10.00;100.00
55590;BME280;41452;42.780;23.116;2023-05-20T01:15:41;94645.66;;;10.04;100.00
55590;BME280;41452;42.780;23.116;2023-05-20T01:18:07;94643.63;;;10.06;100.00
55590;BME280;41452;42.780;23.116;2023-05-20T01:20:34;94648.28;;;10.04;100.00
55590;BME280;41452;42.780;23.116;2023-05-20T01:23:01;94636.56;;;9.88;100.00
55590;BME280;41452;42.780;23.116;2023-05-20T01:25:27;94645.38;;;9.94;100.00
55590;BME280;41452;42.780;23.116;2023-05-20T01:27:54;94647.31;;;9.98;100.00
55590;BME280;41452;42.780;23.116;2023-05-20T01:30:22;94646.53;;;9.98;100.00
55590;BME280;41452;42.780;23.116;2023-05-20T01:32:59;94637.06;;;9.97;100.00
55590;BME280;41452;42.780;23.116;2023-05-20T01:35:26;94633.03;;;9.94;100.00
55590;BME280;41452;42.780;23.116;2023-05-20T01:37:52;94647.63;;;10.08;100.00
55590;BME280;41452;42.780;23.116;2023-05-20T01:40:18;94622.91;;;9.98;100.00
55590;BME280;41452;42.780;23.116;2023-05-20T01:42:44;94643.69;;;9.99;100.00
55590;BME280;41452;42.780;23.116;2023-05-20T01:45:10;94620.72;;;9.76;100.00
55590;BME280;41452;42.780;23.116;2023-05-20T01:47:35;94635.31;;;9.90;100.00
55590;BME280;41452;42.780;23.116;2023-05-20T01:50:01;94640.25;;;9.80;100.00
55590;BME280;41452;42.780;23.116;2023-05-20T01:52:27;94633.41;;;9.79;100.00
55590;BME280;41452;42.780;23.116;2023-05-20T01:54:52;94626.63;;;9.71;100.00
55590;BME280;41452;42.780;23.116;2023-05-20T01:57:19;94641.66;;;9.83;100.00
55590;BME280;41452;42.780;23.116;2023-05-20T01:59:45;94641.44;;;9.84;100.00
55590;BME280;41452;42.780;23.116;2023-05-20T02:02:10;94634.06;;;9.75;100.00
55590;BME280;41452;42.780;23.116;2023-05-20T02:04:36;94646.81;;;9.71;100.00
55590;BME280;41452;42.780;23.116;2023-05-20T02:07:01;94621.94;;;9.55;100.00
55590;BME280;41452;42.780;23.116;2023-05-20T02:09:27;94586.19;;;9.42;100.00
55590;BME280;41452;42.780;23.116;2023-05-20T02:11:52;94642.72;;;9.75;100.00
55590;BME280;41452;42.780;23.116;2023-05-20T02:14:18;94629.75;;;9.62;100.00
55590;BME280;41452;42.780;23.116;2023-05-20T02:16:45;94601.63;;;9.50;100.00
55590;BME280;41452;42.780;23.116;2023-05-20T02:19:10;94637.72;;;9.74;100.00
55590;BME280;41452;42.780;23.116;2023-05-20T02:21:38;94610.66;;;9.55;100.00
55590;BME280;41452;42.780;23.116;2023-05-20T02:24:05;94613.13;;;9.49;100.00
55590;BME280;41452;42.780;23.116;2023-05-20T02:26:30;94615.59;;;9.44;100.00
55590;BME280;41452;42.780;23.116;2023-05-20T02:28:56;94624.03;;;9.46;100.00
55590;BME280;41452;42.780;23.116;2023-05-20T02:31:21;94628.44;;;9.52;100.00
55590;BME280;41452;42.780;23.116;2023-05-20T02:33:47;94626.44;;;9.48;100.00
55590;BME280;41452;42.780;23.116;2023-05-20T02:36:12;94624.50;;;9.43;100.00
55590;BME280;41452;42.780;23.116;2023-05-20T02:38:38;94588.41;;;9.20;100.00
55590;BME280;41452;42.780;23.116;2023-05-20T02:41:03;94620.34;;;9.29;100.00
55590;BME280;41452;42.780;23.116;2023-05-20T02:43:30;94612.50;;;9.29;100.00
55590;BME280;41452;42.780;23.116;2023-05-20T02:45:56;94605.34;;;9.18;100.00
55590;BME280;41452;42.780;23.116;2023-05-20T02:48:21;94609.13;;;9.22;100.00
55590;BME280;41452;42.780;23.116;2023-05-20T02:50:47;94626.25;;;9.24;100.00
55590;BME280;41452;42.780;23.116;2023-05-20T02:53:12;94629.69;;;9.25;100.00
55590;BME280;41452;42.780;23.116;2023-05-20T02:55:39;94629.09;;;9.23;100.00
55590;BME280;41452;42.780;23.116;2023-05-20T02:58:04;94633.38;;;9.17;100.00
55590;BME280;41452;42.780;23.116;2023-05-20T03:00:30;94634.00;;;9.12;100.00
55590;BME280;41452;42.780;23.116;2023-05-20T03:02:56;94624.44;;;9.00;100.00
55590;BME280;41452;42.780;23.116;2023-05-20T03:05:22;94608.91;;;8.73;100.00
55590;BME280;41452;42.780;23.116;2023-05-20T03:07:47;94616.78;;;8.73;100.00
55590;BME280;41452;42.780;23.116;2023-05-20T03:10:13;94647.25;;;8.92;100.00
55590;BME280;41452;42.780;23.116;2023-05-20T03:12:39;94633.03;;;8.82;100.00
55590;BME280;41452;42.780;23.116;2023-05-20T03:15:05;94650.94;;;8.85;100.00
55590;BME280;41452;42.780;23.116;2023-05-20T03:17:30;94630.75;;;8.60;100.00
55590;BME280;41452;42.780;23.116;2023-05-20T03:19:56;94655.25;;;8.72;100.00
55590;BME280;41452;42.780;23.116;2023-05-20T03:22:21;94648.78;;;8.75;100.00
55590;BME280;41452;42.780;23.116;2023-05-20T03:24:46;94643.00;;;8.66;100.00
55590;BME280;41452;42.780;23.116;2023-05-20T03:27:12;94655.63;;;8.76;100.00
55590;BME280;41452;42.780;23.116;2023-05-20T03:29:37;94667.50;;;8.79;100.00
55590;BME280;41452;42.780;23.116;2023-05-20T03:32:03;94655.88;;;8.68;100.00
55590;BME280;41452;42.780;23.116;2023-05-20T03:34:28;94672.53;;;8.80;100.00
55590;BME280;41452;42.780;23.116;2023-05-20T03:36:54;94635.94;;;8.67;100.00
55590;BME280;41452;42.780;23.116;2023-05-20T03:39:20;94651.97;;;8.77;100.00
55590;BME280;41452;42.780;23.116;2023-05-20T03:41:45;94648.97;;;8.73;100.00
55590;BME280;41452;42.780;23.116;2023-05-20T03:44:10;94665.81;;;8.91;100.00
55590;BME280;41452;42.780;23.116;2023-05-20T03:46:36;94661.34;;;8.91;100.00
55590;BME280;41452;42.780;23.116;2023-05-20T03:49:01;94663.19;;;8.91;100.00
55590;BME280;41452;42.780;23.116;2023-05-20T03:51:27;94655.44;;;8.78;100.00
55590;BME280;41452;42.780;23.116;2023-05-20T03:53:52;94673.06;;;8.89;100.00
55590;BME280;41452;42.780;23.116;2023-05-20T03:56:18;94661.34;;;8.91;100.00
55590;BME280;41452;42.780;23.116;2023-05-20T03:58:43;94672.34;;;9.07;100.00
55590;BME280;41452;42.780;23.116;2023-05-20T04:01:09;94655.31;;;8.91;100.00
55590;BME280;41452;42.780;23.116;2023-05-20T04:03:37;94668.34;;;9.04;100.00
55590;BME280;41452;42.780;23.116;2023-05-20T04:06:02;94675.13;;;9.12;100.00
55590;BME280;41452;42.780;23.116;2023-05-20T04:08:28;94651.81;;;9.04;100.00
55590;BME280;41452;42.780;23.116;2023-05-20T04:10:55;94680.63;;;9.29;100.00
55590;BME280;41452;42.780;23.116;2023-05-20T04:13:20;94668.41;;;9.23;100.00
55590;BME280;41452;42.780;23.116;2023-05-20T04:15:46;94680.53;;;9.42;100.00
55590;BME280;41452;42.780;23.116;2023-05-20T04:18:12;94680.00;;;9.59;100.00
55590;BME280;41452;42.780;23.116;2023-05-20T04:20:38;94680.31;;;9.69;100.00
55590;BME280;41452;42.780;23.116;2023-05-20T04:23:05;94678.66;;;9.75;100.00
55590;BME280;41452;42.780;23.116;2023-05-20T04:25:31;94683.84;;;9.81;100.00
55590;BME280;41452;42.780;23.116;2023-05-20T04:27:56;94679.31;;;9.88;100.00
55590;BME280;41452;42.780;23.116;2023-05-20T04:30:22;94683.25;;;9.98;100.00
55590;BME280;41452;42.780;23.116;2023-05-20T04:32:49;94670.81;;;9.93;100.00
55590;BME280;41452;42.780;23.116;2023-05-20T04:35:14;94677.88;;;10.11;100.00
55590;BME280;41452;42.780;23.116;2023-05-20T04:37:40;94672.91;;;10.21;100.00
55590;BME280;41452;42.780;23.116;2023-05-20T04:40:12;94676.44;;;10.34;100.00
55590;BME280;41452;42.780;23.116;2023-05-20T04:42:37;94648.59;;;10.33;100.00
55590;BME280;41452;42.780;23.116;2023-05-20T04:45:04;94674.50;;;10.59;100.00
55590;BME280;41452;42.780;23.116;2023-05-20T04:47:30;94669.25;;;10.59;100.00
55590;BME280;41452;42.780;23.116;2023-05-20T04:49:55;94681.91;;;10.81;100.00
55590;BME280;41452;42.780;23.116;2023-05-20T04:52:24;94683.97;;;10.91;100.00
55590;BME280;41452;42.780;23.116;2023-05-20T04:54:50;94687.81;;;11.07;100.00
55590;BME280;41452;42.780;23.116;2023-05-20T04:57:16;94685.28;;;11.00;100.00
55590;BME280;41452;42.780;23.116;2023-05-20T04:59:48;94688.97;;;11.22;100.00
55590;BME280;41452;42.780;23.116;2023-05-20T05:02:14;94689.94;;;11.40;100.00
55590;BME280;41452;42.780;23.116;2023-05-20T05:04:39;94685.38;;;11.35;100.00
55590;BME280;41452;42.780;23.116;2023-05-20T05:07:05;94691.78;;;11.39;100.00
55590;BME280;41452;42.780;23.116;2023-05-20T05:09:30;94683.09;;;11.51;100.00
55590;BME280;41452;42.780;23.116;2023-05-20T05:11:56;94667.19;;;11.46;100.00
55590;BME280;41452;42.780;23.116;2023-05-20T05:14:21;94692.59;;;11.75;100.00
55590;BME280;41452;42.780;23.116;2023-05-20T05:16:48;94692.16;;;11.78;100.00
55590;BME280;41452;42.780;23.116;2023-05-20T05:19:13;94686.22;;;11.95;100.00
55590;BME280;41452;42.780;23.116;2023-05-20T05:21:39;94681.63;;;12.02;100.00
55590;BME280;41452;42.780;23.116;2023-05-20T05:24:04;94677.63;;;12.11;100.00
55590;BME280;41452;42.780;23.116;2023-05-20T05:26:30;94686.44;;;12.17;100.00
55590;BME280;41452;42.780;23.116;2023-05-20T05:28:55;94678.03;;;12.32;100.00
55590;BME280;41452;42.780;23.116;2023-05-20T05:31:20;94686.03;;;12.49;100.00
55590;BME280;41452;42.780;23.116;2023-05-20T05:33:46;94680.81;;;12.66;100.00
55590;BME280;41452;42.780;23.116;2023-05-20T05:36:11;94678.19;;;12.66;100.00
55590;BME280;41452;42.780;23.116;2023-05-20T05:38:37;94677.41;;;12.82;100.00
55590;BME280;41452;42.780;23.116;2023-05-20T05:41:02;94658.66;;;12.79;100.00
55590;BME280;41452;42.780;23.116;2023-05-20T05:43:28;94676.75;;;13.04;100.00
55590;BME280;41452;42.780;23.116;2023-05-20T05:45:53;94680.94;;;13.17;100.00
55590;BME280;41452;42.780;23.116;2023-05-20T05:48:18;94682.47;;;13.29;100.00
55590;BME280;41452;42.780;23.116;2023-05-20T05:50:44;94687.22;;;13.44;100.00
55590;BME280;41452;42.780;23.116;2023-05-20T05:53:10;94678.19;;;13.57;100.00
55590;BME280;41452;42.780;23.116;2023-05-20T05:55:35;94685.47;;;13.67;100.00
55590;BME280;41452;42.780;23.116;2023-05-20T05:58:01;94665.66;;;13.64;100.00
55590;BME280;41452;42.780;23.116;2023-05-20T06:00:26;94678.25;;;13.79;100.00
55590;BME280;41452;42.780;23.116;2023-05-20T06:02:52;94680.19;;;13.84;100.00
55590;BME280;41452;42.780;23.116;2023-05-20T06:05:17;94669.19;;;13.92;100.00
55590;BME280;41452;42.780;23.116;2023-05-20T06:07:43;94681.25;;;14.05;100.00
55590;BME280;41452;42.780;23.116;2023-05-20T06:10:09;94660.75;;;14.12;100.00
55590;BME280;41452;42.780;23.116;2023-05-20T06:12:34;94666.34;;;14.16;100.00
55590;BME280;41452;42.780;23.116;2023-05-20T06:15:00;94644.91;;;14.12;100.00
55590;BME280;41452;42.780;23.116;2023-05-20T06:17:25;94676.25;;;14.48;100.00
55590;BME280;41452;42.780;23.116;2023-05-20T06:19:51;94669.94;;;14.49;100.00
55590;BME280;41452;42.780;23.116;2023-05-20T06:22:16;94681.28;;;14.49;100.00
55590;BME280;41452;42.780;23.116;2023-05-20T06:24:41;94675.81;;;14.56;100.00
55590;BME280;41452;42.780;23.116;2023-05-20T06:27:07;94682.66;;;14.74;100.00
55590;BME280;41452;42.780;23.116;2023-05-20T06:29:32;94649.59;;;14.71;100.00
55590;BME280;41452;42.780;23.116;2023-05-20T06:31:58;94650.03;;;14.90;100.00
55590;BME280;41452;42.780;23.116;2023-05-20T06:34:23;94663.06;;;14.97;100.00
55590;BME280;41452;42.780;23.116;2023-05-20T06:36:49;94668.50;;;15.12;100.00
55590;BME280;41452;42.780;23.116;2023-05-20T06:39:14;94659.06;;;15.21;100.00
55590;BME280;41452;42.780;23.116;2023-05-20T06:41:40;94661.13;;;15.14;100.00
55590;BME280;41452;42.780;23.116;2023-05-20T06:44:05;94647.94;;;15.19;100.00
55590;BME280;41452;42.780;23.116;2023-05-20T06:46:32;94630.25;;;15.25;100.00
55590;BME280;41452;42.780;23.116;2023-05-20T06:48:57;94652.41;;;15.46;100.00
55590;BME280;41452;42.780;23.116;2023-05-20T06:51:23;94645.59;;;15.55;100.00
55590;BME280;41452;42.780;23.116;2023-05-20T06:53:48;94624.06;;;15.47;100.00
55590;BME280;41452;42.780;23.116;2023-05-20T06:56:13;94633.44;;;15.59;95.63
55590;BME280;41452;42.780;23.116;2023-05-20T06:58:39;94656.81;;;15.73;96.18
55590;BME280;41452;42.780;23.116;2023-05-20T07:01:05;94663.41;;;15.70;95.24
55590;BME280;41452;42.780;23.116;2023-05-20T07:03:30;94657.06;;;15.71;95.58
55590;BME280;41452;42.780;23.116;2023-05-20T07:05:55;94645.22;;;15.79;97.26
55590;BME280;41452;42.780;23.116;2023-05-20T07:08:21;94663.44;;;16.08;96.31
55590;BME280;41452;42.780;23.116;2023-05-20T07:10:46;94651.19;;;16.02;95.35
55590;BME280;41452;42.780;23.116;2023-05-20T07:13:12;94654.47;;;16.19;95.23
55590;BME280;41452;42.780;23.116;2023-05-20T07:15:37;94622.09;;;16.07;95.58
55590;BME280;41452;42.780;23.116;2023-05-20T07:18:02;94616.53;;;16.08;93.04
55590;BME280;41452;42.780;23.116;2023-05-20T07:20:28;94643.69;;;16.41;91.61
55590;BME280;41452;42.780;23.116;2023-05-20T07:22:53;94637.91;;;16.49;86.88
55590;BME280;41452;42.780;23.116;2023-05-20T07:25:18;94650.41;;;16.64;88.69
55590;BME280;41452;42.780;23.116;2023-05-20T07:27:44;94648.03;;;16.68;91.92
55590;BME280;41452;42.780;23.116;2023-05-20T07:30:10;94626.53;;;16.59;88.91
55590;BME280;41452;42.780;23.116;2023-05-20T07:32:35;94638.00;;;16.80;83.83
55590;BME280;41452;42.780;23.116;2023-05-20T07:35:01;94625.00;;;16.68;89.54
55590;BME280;41452;42.780;23.116;2023-05-20T07:37:26;94630.38;;;16.94;85.86
55590;BME280;41452;42.780;23.116;2023-05-20T07:39:52;94631.69;;;17.02;84.01
55590;BME280;41452;42.780;23.116;2023-05-20T07:42:17;94642.63;;;17.26;85.94
55590;BME280;41452;42.780;23.116;2023-05-20T07:44:42;94619.25;;;17.28;85.73
55590;BME280;41452;42.780;23.116;2023-05-20T07:47:08;94627.22;;;17.38;84.62
55590;BME280;41452;42.780;23.116;2023-05-20T07:49:33;94620.31;;;17.37;79.51
55590;BME280;41452;42.780;23.116;2023-05-20T07:51:59;94610.50;;;17.38;83.64
55590;BME280;41452;42.780;23.116;2023-05-20T07:54:25;94635.19;;;17.43;81.50
55590;BME280;41452;42.780;23.116;2023-05-20T07:56:52;94621.09;;;17.53;83.86
55590;BME280;41452;42.780;23.116;2023-05-20T07:59:17;94633.53;;;17.83;80.33
55590;BME280;41452;42.780;23.116;2023-05-20T08:01:43;94638.34;;;17.81;78.52
55590;BME280;41452;42.780;23.116;2023-05-20T08:04:08;94628.28;;;17.68;79.90
55590;BME280;41452;42.780;23.116;2023-05-20T08:06:33;94622.94;;;17.94;81.64
55590;BME280;41452;42.780;23.116;2023-05-20T08:09:00;94622.91;;;18.04;79.79
55590;BME280;41452;42.780;23.116;2023-05-20T08:11:26;94603.78;;;18.12;78.17
55590;BME280;41452;42.780;23.116;2023-05-20T08:13:52;94593.69;;;18.09;78.21
55590;BME280;41452;42.780;23.116;2023-05-20T08:16:17;94608.50;;;18.26;75.46
55590;BME280;41452;42.780;23.116;2023-05-20T08:18:43;94589.69;;;18.07;78.52
55590;BME280;41452;42.780;23.116;2023-05-20T08:21:08;94600.00;;;18.23;80.45
55590;BME280;41452;42.780;23.116;2023-05-20T08:23:34;94603.66;;;18.38;74.41
55590;BME280;41452;42.780;23.116;2023-05-20T08:26:00;94619.59;;;18.43;74.16
55590;BME280;41452;42.780;23.116;2023-05-20T08:28:30;94609.19;;;18.52;75.37
55590;BME280;41452;42.780;23.116;2023-05-20T08:30:56;94607.50;;;18.71;73.85
55590;BME280;41452;42.780;23.116;2023-05-20T08:33:22;94610.91;;;18.77;75.55
55590;BME280;41452;42.780;23.116;2023-05-20T08:35:48;94580.16;;;18.60;71.76
55590;BME280;41452;42.780;23.116;2023-05-20T08:38:13;94562.59;;;18.59;72.17
55590;BME280;41452;42.780;23.116;2023-05-20T08:40:39;94609.25;;;18.91;77.17
55590;BME280;41452;42.780;23.116;2023-05-20T08:43:04;94607.06;;;19.04;74.37
55590;BME280;41452;42.780;23.116;2023-05-20T08:45:31;94608.47;;;18.91;74.22
55590;BME280;41452;42.780;23.116;2023-05-20T08:47:57;94607.53;;;19.11;74.08
55590;BME280;41452;42.780;23.116;2023-05-20T08:50:23;94603.69;;;19.27;74.64
55590;BME280;41452;42.780;23.116;2023-05-20T08:52:49;94613.53;;;19.27;72.14
55590;BME280;41452;42.780;23.116;2023-05-20T08:55:19;94592.03;;;19.18;71.36
55590;BME280;41452;42.780;23.116;2023-05-20T08:57:53;94606.34;;;19.27;67.56
55590;BME280;41452;42.780;23.116;2023-05-20T09:00:20;94603.03;;;19.46;72.16
55590;BME280;41452;42.780;23.116;2023-05-20T09:02:48;94602.44;;;19.49;70.05
55590;BME280;41452;42.780;23.116;2023-05-20T09:05:14;94608.81;;;19.53;68.05
55590;BME280;41452;42.780;23.116;2023-05-20T09:07:39;94594.88;;;19.61;69.60
55590;BME280;41452;42.780;23.116;2023-05-20T09:10:07;94596.88;;;19.80;69.84
55590;BME280;41452;42.780;23.116;2023-05-20T09:12:34;94597.38;;;19.82;65.75
55590;BME280;41452;42.780;23.116;2023-05-20T09:14:59;94594.28;;;19.69;68.50
55590;BME280;41452;42.780;23.116;2023-05-20T09:17:25;94581.34;;;19.87;65.57
55590;BME280;41452;42.780;23.116;2023-05-20T09:19:52;94592.91;;;20.01;66.06
55590;BME280;41452;42.780;23.116;2023-05-20T09:22:25;94589.66;;;20.09;66.29
55590;BME280;41452;42.780;23.116;2023-05-20T09:24:52;94563.59;;;20.01;64.41
55590;BME280;41452;42.780;23.116;2023-05-20T09:27:18;94582.94;;;20.12;67.01
55590;BME280;41452;42.780;23.116;2023-05-20T09:29:46;94589.50;;;20.20;65.59
55590;BME280;41452;42.780;23.116;2023-05-20T09:32:12;94555.50;;;20.11;65.83
55590;BME280;41452;42.780;23.116;2023-05-20T09:34:38;94554.13;;;20.14;67.76
55590;BME280;41452;42.780;23.116;2023-05-20T09:37:06;94570.22;;;20.28;65.22
55590;BME280;41452;42.780;23.116;2023-05-20T09:39:38;94556.63;;;20.05;64.55
55590;BME280;41452;42.780;23.116;2023-05-20T09:45:01;94576.09;;;20.49;65.52
55590;BME280;41452;42.780;23.116;2023-05-20T09:47:28;94583.81;;;20.50;64.19
55590;BME280;41452;42.780;23.116;2023-05-20T09:49:54;94560.78;;;20.36;63.43
55590;BME280;41452;42.780;23.116;2023-05-20T09:52:21;94567.38;;;20.43;64.55
55590;BME280;41452;42.780;23.116;2023-05-20T09:54:47;94551.78;;;20.31;65.71
55590;BME280;41452;42.780;23.116;2023-05-20T09:57:13;94562.41;;;20.56;67.82
55590;BME280;41452;42.780;23.116;2023-05-20T09:59:39;94564.59;;;20.73;66.83
55590;BME280;41452;42.780;23.116;2023-05-20T10:02:05;94561.31;;;20.57;65.14
55590;BME280;41452;42.780;23.116;2023-05-20T10:04:34;94560.72;;;20.41;63.76
55590;BME280;41452;42.780;23.116;2023-05-20T10:15:54;94541.56;;;20.77;62.39
55590;BME280;41452;42.780;23.116;2023-05-20T10:21:20;94534.72;;;20.89;62.46
55590;BME280;41452;42.780;23.116;2023-05-20T10:23:52;94536.81;;;20.93;61.12
55590;BME280;41452;42.780;23.116;2023-05-20T10:26:18;94531.81;;;21.05;58.18
55590;BME280;41452;42.780;23.116;2023-05-20T10:28:44;94527.66;;;20.99;61.20
55590;BME280;41452;42.780;23.116;2023-05-20T10:31:14;94529.34;;;21.08;60.49
55590;BME280;41452;42.780;23.116;2023-05-20T10:33:45;94528.81;;;21.25;59.32
55590;BME280;41452;42.780;23.116;2023-05-20T10:36:30;94535.84;;;21.21;54.02
55590;BME280;41452;42.780;23.116;2023-05-20T10:38:58;94525.97;;;21.03;56.43
55590;BME280;41452;42.780;23.116;2023-05-20T10:41:25;94528.56;;;21.08;56.58
55590;BME280;41452;42.780;23.116;2023-05-20T10:44:04;94516.53;;;21.11;55.44
55590;BME280;41452;42.780;23.116;2023-05-20T10:46:31;94497.94;;;20.86;55.69
55590;BME280;41452;42.780;23.116;2023-05-20T10:48:57;94516.22;;;21.12;57.05
55590;BME280;41452;42.780;23.116;2023-05-20T10:51:23;94508.59;;;21.19;57.08
55590;BME280;41452;42.780;23.116;2023-05-20T10:53:52;94505.72;;;21.02;58.67
55590;BME280;41452;42.780;23.116;2023-05-20T10:56:20;94506.56;;;20.97;53.76
55590;BME280;41452;42.780;23.116;2023-05-20T10:58:46;94506.53;;;20.83;54.41
55590;BME280;41452;42.780;23.116;2023-05-20T11:01:13;94466.00;;;20.81;54.97
55590;BME280;41452;42.780;23.116;2023-05-20T11:03:42;94479.09;;;20.97;51.81
55590;BME280;41452;42.780;23.116;2023-05-20T11:06:27;94492.78;;;21.09;54.67
55590;BME280;41452;42.780;23.116;2023-05-20T11:08:53;94488.34;;;20.85;52.79
55590;BME280;41452;42.780;23.116;2023-05-20T11:11:18;94484.56;;;21.19;55.26
55590;BME280;41452;42.780;23.116;2023-05-20T11:13:44;94507.94;;;21.27;50.34
55590;BME280;41452;42.780;23.116;2023-05-20T11:16:14;94462.09;;;21.06;53.46
55590;BME280;41452;42.780;23.116;2023-05-20T11:18:39;94491.84;;;21.33;54.76
55590;BME280;41452;42.780;23.116;2023-05-20T11:21:05;94484.31;;;21.35;51.73
55590;BME280;41452;42.780;23.116;2023-05-20T11:23:30;94455.41;;;21.23;50.99
55590;BME280;41452;42.780;23.116;2023-05-20T11:25:56;94490.34;;;21.26;50.91
55590;BME280;41452;42.780;23.116;2023-05-20T11:28:22;94476.50;;;20.92;52.95
55590;BME280;41452;42.780;23.116;2023-05-20T11:30:49;94461.91;;;21.03;53.01
55590;BME280;41452;42.780;23.116;2023-05-20T11:33:16;94469.66;;;21.18;55.61
55590;BME280;41452;42.780;23.116;2023-05-20T11:35:47;94425.41;;;21.12;50.33
55590;BME280;41452;42.780;23.116;2023-05-20T11:38:13;94448.09;;;21.42;52.43
55590;BME280;41452;42.780;23.116;2023-05-20T11:40:45;94447.31;;;21.42;52.06
55590;BME280;41452;42.780;23.116;2023-05-20T11:43:12;94456.94;;;21.43;49.39
55590;BME280;41452;42.780;23.116;2023-05-20T11:45:40;94433.47;;;21.26;51.07
55590;BME280;41452;42.780;23.116;2023-05-20T11:48:06;94461.38;;;21.34;50.98
55590;BME280;41452;42.780;23.116;2023-05-20T11:50:36;94457.22;;;21.41;52.41
55590;BME280;41452;42.780;23.116;2023-05-20T11:53:04;94444.97;;;21.26;54.58
55590;BME280;41452;42.780;23.116;2023-05-20T11:55:30;94441.47;;;21.26;52.32
55590;BME280;41452;42.780;23.116;2023-05-20T11:57:58;94432.38;;;21.27;54.40
55590;BME280;41452;42.780;23.116;2023-05-20T12:00:23;94440.91;;;21.43;51.49
55590;BME280;41452;42.780;23.116;2023-05-20T12:02:49;94413.69;;;21.27;50.05
55590;BME280;41452;42.780;23.116;2023-05-20T12:05:14;94412.69;;;21.23;51.09
55590;BME280;41452;42.780;23.116;2023-05-20T12:07:40;94420.03;;;21.45;51.18
55590;BME280;41452;42.780;23.116;2023-05-20T12:10:06;94426.53;;;21.39;50.23
55590;BME280;41452;42.780;23.116;2023-05-20T12:12:32;94425.97;;;21.42;50.83
55590;BME280;41452;42.780;23.116;2023-05-20T12:14:57;94425.75;;;21.24;49.67
55590;BME280;41452;42.780;23.116;2023-05-20T12:17:23;94436.81;;;21.32;49.95
55590;BME280;41452;42.780;23.116;2023-05-20T12:19:48;94417.63;;;21.30;49.19
55590;BME280;41452;42.780;23.116;2023-05-20T12:22:13;94413.69;;;21.27;49.67
55590;BME280;41452;42.780;23.116;2023-05-20T12:24:39;94411.31;;;21.39;50.86
55590;BME280;41452;42.780;23.116;2023-05-20T12:27:04;94429.34;;;21.48;50.75
55590;BME280;41452;42.780;23.116;2023-05-20T12:29:31;94419.03;;;21.27;51.09
55590;BME280;41452;42.780;23.116;2023-05-20T12:31:56;94430.69;;;21.03;52.06
55590;BME280;41452;42.780;23.116;2023-05-20T12:34:21;94416.09;;;20.96;53.16
55590;BME280;41452;42.780;23.116;2023-05-20T12:36:47;94412.03;;;20.84;51.20
55590;BME280;41452;42.780;23.116;2023-05-20T12:39:13;94427.63;;;20.77;50.92
55590;BME280;41452;42.780;23.116;2023-05-20T12:41:42;94434.47;;;20.83;50.24
55590;BME280;41452;42.780;23.116;2023-05-20T12:44:07;94432.09;;;20.82;52.61
55590;BME280;41452;42.780;23.116;2023-05-20T12:46:33;94414.63;;;20.89;52.70
55590;BME280;41452;42.780;23.116;2023-05-20T12:48:58;94424.66;;;21.25;51.38
55590;BME280;41452;42.780;23.116;2023-05-20T12:51:24;94433.03;;;21.05;52.79
55590;BME280;41452;42.780;23.116;2023-05-20T12:53:49;94420.81;;;20.85;53.38
55590;BME280;41452;42.780;23.116;2023-05-20T12:56:14;94434.00;;;20.43;53.38